Aviation Digital Data Service (ADDS)

Output produced by METARs form (0846 UTC 25 April 2015)
found at http://aviationweather.gov/adds/metars/
 
KSYR 250524Z 2506/2606 27008KT P6SM SCT050 
     FM251400 31012KT P6SM SCT060 
     FM260000 VRB03KT P6SM SKC